createdAt,value
2022-12-17T00:02:42.127Z,68.60
2022-12-17T00:05:27.779Z,60.67
2022-12-17T00:08:19.954Z,56.42
2022-12-17T00:11:05.472Z,50.25
2022-12-17T00:14:07.491Z,53.95
2022-12-17T00:16:53.077Z,51.13
2022-12-17T00:19:56.350Z,46.13
2022-12-17T00:22:41.893Z,48.30
2022-12-17T00:25:28.527Z,48.28
2022-12-17T00:28:14.124Z,44.20
2022-12-17T00:30:59.435Z,40.55
2022-12-17T00:33:44.724Z,39.83
2022-12-17T00:36:30.196Z,37.38
2022-12-17T00:39:15.814Z,33.67
2022-12-17T00:42:01.254Z,32.97
2022-12-17T00:44:46.401Z,35.47
2022-12-17T00:47:31.820Z,33.20
2022-12-17T00:50:17.031Z,39.67
2022-12-17T01:20:17.464Z,32.60
2022-12-17T01:23:08.749Z,40.85
2022-12-17T01:25:54.337Z,39.10
2022-12-17T01:28:42.826Z,39.97
2022-12-17T01:31:34.300Z,40.83
2022-12-17T01:34:20.191Z,38.75
2022-12-17T01:37:06.331Z,41.80
2022-12-17T01:39:51.657Z,42.58
2022-12-17T01:42:36.957Z,41.35
2022-12-17T01:45:24.113Z,43.38
2022-12-17T01:48:21.733Z,42.00
2022-12-17T01:51:09.342Z,43.72
2022-12-17T01:53:56.718Z,55.22
2022-12-17T01:56:43.671Z,43.45
2022-12-17T01:59:28.809Z,41.15
2022-12-17T02:02:14.357Z,47.20
2022-12-17T02:04:59.881Z,46.15
2022-12-17T02:08:03.806Z,45.78
2022-12-17T02:11:07.765Z,39.25
2022-12-17T02:14:00.025Z,43.28
2022-12-17T02:16:51.178Z,41.85
2022-12-17T02:19:55.768Z,39.45
2022-12-17T02:22:58.697Z,45.13
2022-12-17T02:26:09.361Z,40.80
2022-12-17T02:28:57.641Z,33.65
2022-12-17T02:31:43.559Z,51.58
2022-12-17T02:34:28.998Z,41.10
2022-12-17T02:37:14.369Z,45.28
2022-12-17T02:39:59.866Z,41.13
2022-12-17T02:42:45.279Z,40.63
2022-12-17T02:45:31.242Z,42.97
2022-12-17T02:48:16.572Z,41.20
2022-12-17T02:51:01.923Z,38.00
2022-12-17T02:53:47.590Z,32.75
2022-12-17T02:56:32.907Z,40.53
2022-12-17T02:59:18.217Z,32.25
2022-12-17T03:02:03.751Z,36.60
2022-12-17T03:04:50.239Z,35.35
2022-12-17T03:07:35.572Z,34.60
2022-12-17T03:10:21.451Z,38.35
2022-12-17T03:13:06.879Z,40.95
2022-12-17T03:15:52.135Z,39.03
2022-12-17T03:18:37.459Z,36.90
2022-12-17T03:21:23.082Z,37.17
2022-12-17T03:24:08.401Z,39.25
2022-12-17T03:26:53.979Z,42.08
2022-12-17T03:29:39.315Z,39.97
2022-12-17T03:32:24.776Z,42.25
2022-12-17T03:35:10.157Z,38.83
2022-12-17T03:37:55.499Z,31.98
2022-12-17T03:40:40.903Z,38.05
2022-12-17T03:43:27.206Z,42.17
2022-12-17T03:46:13.214Z,41.42
2022-12-17T03:48:58.669Z,35.53
2022-12-17T03:51:44.250Z,35.40
2022-12-17T03:54:29.755Z,37.10
2022-12-17T03:57:16.416Z,38.60
2022-12-17T04:00:02.049Z,40.53
2022-12-17T04:02:57.792Z,39.95
2022-12-17T04:05:43.654Z,31.23
2022-12-17T04:08:28.981Z,40.22
2022-12-17T04:11:14.365Z,35.03
2022-12-17T04:13:59.842Z,34.70
2022-12-17T04:16:45.135Z,29.42
2022-12-17T04:19:30.282Z,29.25
2022-12-17T04:22:15.580Z,32.97
2022-12-17T04:25:01.009Z,30.77
2022-12-17T04:27:46.416Z,32.40
2022-12-17T04:30:32.001Z,28.40
2022-12-17T04:33:17.261Z,32.17
2022-12-17T04:36:02.641Z,29.83
2022-12-17T04:38:47.899Z,25.23
2022-12-17T04:41:43.941Z,33.72
2022-12-17T04:44:29.649Z,30.73
2022-12-17T04:47:15.243Z,25.33
2022-12-17T04:50:00.657Z,28.73
2022-12-17T04:52:45.993Z,25.65
2022-12-17T04:55:31.236Z,24.67
2022-12-17T04:58:23.723Z,26.48
2022-12-17T05:01:11.153Z,24.67
2022-12-17T05:03:56.576Z,21.73
2022-12-17T05:06:42.754Z,20.92
2022-12-17T05:09:28.149Z,22.00
2022-12-17T05:12:13.429Z,21.88
2022-12-17T05:14:58.877Z,18.75
2022-12-17T05:17:44.271Z,22.52
2022-12-17T05:20:29.756Z,20.55
2022-12-17T05:23:15.143Z,25.77
2022-12-17T05:26:00.468Z,22.83
2022-12-17T05:28:45.832Z,20.10
2022-12-17T05:31:31.040Z,22.10
2022-12-17T05:34:16.338Z,25.67
2022-12-17T05:40:36.708Z,38.28
2022-12-17T05:43:25.733Z,60.10
2022-12-17T05:46:11.021Z,56.70
2022-12-17T05:48:56.234Z,83.90
2022-12-17T05:51:41.589Z,48.08
2022-12-17T05:54:27.137Z,49.15
2022-12-17T05:57:12.843Z,38.13
2022-12-17T05:59:58.200Z,39.10
2022-12-17T06:02:43.608Z,37.60
2022-12-17T06:05:29.065Z,33.80
2022-12-17T06:08:27.339Z,23.65
2022-12-17T06:11:12.841Z,23.83
2022-12-17T06:13:58.415Z,19.55
2022-12-17T06:16:43.807Z,21.05
2022-12-17T06:19:29.586Z,18.75
2022-12-17T06:22:15.139Z,29.50
2022-12-17T06:25:00.489Z,21.17
2022-12-17T06:27:45.892Z,19.95
2022-12-17T06:30:31.427Z,24.40
2022-12-17T06:33:27.274Z,27.67
2022-12-17T06:36:21.351Z,22.80
2022-12-17T06:39:07.705Z,22.27
2022-12-17T06:41:52.898Z,25.33
2022-12-17T06:44:45.661Z,24.85
2022-12-17T06:47:30.979Z,22.70
2022-12-17T06:50:16.297Z,21.77
2022-12-17T06:53:01.774Z,20.33
2022-12-17T06:55:47.257Z,23.58
2022-12-17T06:58:32.473Z,20.67
2022-12-17T07:01:18.002Z,20.17
2022-12-17T07:04:03.419Z,15.63
2022-12-17T07:06:48.660Z,18.35
2022-12-17T07:09:34.260Z,22.27
2022-12-17T07:12:19.797Z,24.15
2022-12-17T07:15:05.156Z,20.55
2022-12-17T07:17:50.849Z,20.23
2022-12-17T07:20:36.242Z,21.88
2022-12-17T07:23:21.852Z,20.70
2022-12-17T07:26:07.271Z,23.02
2022-12-17T07:28:52.660Z,24.55
2022-12-17T07:31:38.096Z,21.10
2022-12-17T07:34:23.360Z,21.90
2022-12-17T07:37:08.686Z,20.17
2022-12-17T07:39:55.382Z,26.52
2022-12-17T07:42:40.763Z,26.13
2022-12-17T07:45:27.082Z,26.52
2022-12-17T07:48:12.977Z,21.95
2022-12-17T07:50:58.645Z,24.13
2022-12-17T07:53:44.115Z,26.23
2022-12-17T07:56:29.541Z,32.08
2022-12-17T07:59:15.114Z,31.63
2022-12-17T08:02:00.817Z,22.77
2022-12-17T08:04:46.505Z,27.05
2022-12-17T08:07:31.761Z,28.92
2022-12-17T08:10:17.340Z,32.13
2022-12-17T08:13:14.340Z,34.78
2022-12-17T08:15:59.941Z,29.20
2022-12-17T08:18:47.215Z,23.60
2022-12-17T08:21:32.518Z,19.92
2022-12-17T08:24:17.827Z,21.80
2022-12-17T08:27:03.117Z,30.38
2022-12-17T08:29:48.831Z,33.20
2022-12-17T08:32:34.217Z,30.85
2022-12-17T08:35:19.484Z,35.22
2022-12-17T08:38:04.904Z,34.75
2022-12-17T08:40:50.155Z,30.48
2022-12-17T08:43:35.773Z,30.23
2022-12-17T08:46:21.610Z,33.80
2022-12-17T08:49:06.988Z,32.03
2022-12-17T08:51:52.689Z,39.13
2022-12-17T08:54:38.013Z,43.42
2022-12-17T08:57:31.573Z,38.67
2022-12-17T09:00:17.688Z,41.80
2022-12-17T09:03:03.306Z,42.22
2022-12-17T09:05:56.564Z,42.13
2022-12-17T09:08:42.067Z,36.90
2022-12-17T09:11:27.429Z,48.92
2022-12-17T09:14:12.879Z,45.10
2022-12-17T09:16:58.361Z,40.35
2022-12-17T09:19:43.689Z,52.08
2022-12-17T09:22:28.873Z,47.13
2022-12-17T09:25:14.262Z,50.55
2022-12-17T09:27:59.506Z,50.13
2022-12-17T09:30:44.824Z,51.03
2022-12-17T09:33:36.681Z,54.78
2022-12-17T09:36:23.298Z,51.80
2022-12-17T09:39:08.596Z,55.17
2022-12-17T09:42:03.108Z,44.65
2022-12-17T09:45:28.073Z,47.25
2022-12-17T09:48:32.428Z,48.95
2022-12-17T09:51:17.973Z,49.70
2022-12-17T09:54:04.359Z,43.72
2022-12-17T09:56:50.646Z,47.92
2022-12-17T09:59:37.845Z,50.80
2022-12-17T10:02:36.213Z,47.95
2022-12-17T10:05:23.246Z,45.15
2022-12-17T10:08:08.593Z,51.97
2022-12-17T10:10:53.748Z,41.58
2022-12-17T10:13:42.417Z,42.60
2022-12-17T10:16:55.579Z,45.58
2022-12-17T10:19:56.494Z,45.20
2022-12-17T10:22:41.962Z,41.92
2022-12-17T10:25:39.492Z,39.00
2022-12-17T10:28:28.973Z,38.15
2022-12-17T10:31:14.218Z,43.75
2022-12-17T10:34:00.125Z,42.85
2022-12-17T10:36:45.930Z,40.83
2022-12-17T10:39:40.798Z,54.60
2022-12-17T10:42:47.034Z,44.65
2022-12-17T10:45:40.080Z,41.47
2022-12-17T10:49:14.739Z,38.00
2022-12-17T10:54:49.283Z,37.67
2022-12-17T10:58:20.399Z,40.65
2022-12-17T11:01:05.678Z,43.13
2022-12-17T11:04:11.059Z,43.33
2022-12-17T11:07:08.117Z,32.10
2022-12-17T11:10:08.942Z,37.67
2022-12-17T11:13:08.228Z,37.42
2022-12-17T11:16:01.840Z,40.88
2022-12-17T11:19:15.680Z,33.58
2022-12-17T11:22:07.783Z,41.15
2022-12-17T11:25:11.380Z,37.05
2022-12-17T11:28:04.686Z,43.55
2022-12-17T11:30:51.931Z,40.80
2022-12-17T11:33:37.775Z,38.42
2022-12-17T11:36:51.428Z,33.25
2022-12-17T11:40:06.353Z,39.75
2022-12-17T11:43:10.541Z,39.67
2022-12-17T11:45:57.452Z,37.78
2022-12-17T11:48:48.956Z,39.97
2022-12-17T11:51:37.227Z,38.25
2022-12-17T11:54:34.814Z,39.55
2022-12-17T11:57:37.316Z,41.53
2022-12-17T12:00:34.102Z,39.35
2022-12-17T12:03:39.699Z,40.47
2022-12-17T12:06:32.874Z,37.40
2022-12-17T12:10:10.180Z,41.67
2022-12-17T12:13:19.862Z,44.80
2022-12-17T12:16:18.959Z,44.28
2022-12-17T12:19:22.955Z,47.67
2022-12-17T12:24:59.788Z,42.70
2022-12-17T12:28:03.831Z,42.55
2022-12-17T12:31:13.289Z,43.78
2022-12-17T12:34:19.251Z,48.85
2022-12-17T12:37:04.684Z,45.17
2022-12-17T12:40:02.553Z,49.47
2022-12-17T12:42:55.966Z,42.58
2022-12-17T12:46:09.710Z,47.20
2022-12-17T12:49:11.383Z,48.58
2022-12-17T12:51:57.013Z,61.63
2022-12-17T12:55:10.314Z,45.40
2022-12-17T12:57:56.708Z,44.60
2022-12-17T13:00:42.097Z,48.72
2022-12-17T13:03:39.931Z,57.50
2022-12-17T13:06:07.093Z,44.72
2022-12-17T13:08:34.277Z,49.15
2022-12-17T13:11:26.248Z,52.25
2022-12-17T13:13:58.716Z,49.00
2022-12-17T13:16:31.815Z,53.25
2022-12-17T13:21:42.582Z,57.15
2022-12-17T13:24:13.380Z,58.47
2022-12-17T13:26:40.134Z,59.25
2022-12-17T13:29:29.728Z,51.22
2022-12-17T13:32:15.986Z,61.15
2022-12-17T13:35:10.257Z,58.15
2022-12-17T13:37:55.171Z,51.17
2022-12-17T13:40:45.524Z,53.42
2022-12-17T13:43:23.983Z,55.45
2022-12-17T13:45:51.489Z,61.75
2022-12-17T13:48:23.385Z,49.33
2022-12-17T13:50:59.695Z,51.22
2022-12-17T13:53:27.372Z,58.42
2022-12-17T13:55:55.394Z,56.90
2022-12-17T13:58:26.323Z,52.70
2022-12-17T14:01:11.040Z,52.72
2022-12-17T14:04:06.636Z,49.15
2022-12-17T14:06:30.439Z,47.83
2022-12-17T14:08:57.257Z,51.17
2022-12-17T14:11:42.857Z,51.67
2022-12-17T14:14:37.948Z,51.33
2022-12-17T14:17:04.820Z,51.65
2022-12-17T14:19:32.157Z,52.00
2022-12-17T14:21:59.159Z,48.53
2022-12-17T14:24:29.077Z,41.05
2022-12-17T14:26:58.440Z,50.85
2022-12-17T14:29:27.128Z,44.47
2022-12-17T14:31:59.784Z,43.35
2022-12-17T14:34:26.617Z,40.50
2022-12-17T14:36:58.011Z,42.60
2022-12-17T14:39:27.005Z,45.22
2022-12-17T14:42:14.487Z,37.85
2022-12-17T14:44:50.217Z,30.98
2022-12-17T14:47:26.025Z,36.40
2022-12-17T14:50:01.407Z,32.22
2022-12-17T14:52:40.720Z,38.92
2022-12-17T14:55:38.651Z,36.25
2022-12-17T14:58:11.523Z,30.15
2022-12-17T15:00:51.368Z,24.73
2022-12-17T15:03:23.342Z,20.23
2022-12-17T15:05:56.720Z,20.40
2022-12-17T15:08:23.547Z,22.80
2022-12-17T15:10:50.419Z,21.08
2022-12-17T15:13:17.180Z,27.75
2022-12-17T15:15:44.835Z,36.47
2022-12-17T15:18:11.751Z,27.63
2022-12-17T15:20:38.533Z,31.85
2022-12-17T15:23:05.396Z,32.25
2022-12-17T15:25:32.249Z,34.88
2022-12-17T15:32:22.609Z,49.55
2022-12-17T15:34:50.553Z,61.22
2022-12-17T15:37:20.974Z,62.95
2022-12-17T15:39:50.120Z,57.20
2022-12-17T15:42:36.910Z,60.60
2022-12-17T15:45:05.631Z,51.00
2022-12-17T15:47:32.374Z,48.72
2022-12-17T15:49:59.166Z,39.70
2022-12-17T15:52:26.028Z,45.92
2022-12-17T15:54:52.899Z,48.05
2022-12-17T15:57:19.665Z,48.13
2022-12-17T15:59:46.410Z,46.95
2022-12-17T16:02:13.504Z,46.22
2022-12-17T16:04:41.066Z,43.92
2022-12-17T16:07:07.980Z,43.28
2022-12-17T16:09:34.788Z,45.00
2022-12-17T16:12:01.554Z,58.50
2022-12-17T16:14:29.064Z,53.92
2022-12-17T16:16:55.811Z,44.97
2022-12-17T16:19:22.611Z,53.70
2022-12-17T16:21:49.438Z,48.95
2022-12-17T16:24:16.214Z,69.63
2022-12-17T16:26:43.006Z,74.35
2022-12-17T16:29:09.757Z,70.75
2022-12-17T16:31:37.356Z,66.50
2022-12-17T16:34:08.740Z,67.35
2022-12-17T16:36:35.557Z,74.00
2022-12-17T16:39:03.353Z,73.25
2022-12-17T16:41:30.217Z,90.78
2022-12-17T16:43:58.178Z,88.57
2022-12-17T16:46:29.064Z,99.90
2022-12-17T16:48:56.928Z,96.20
2022-12-17T16:51:28.968Z,91.63
2022-12-17T16:53:56.912Z,86.95
2022-12-17T16:56:25.695Z,95.80
2022-12-17T16:58:52.706Z,95.00
2022-12-17T17:01:27.038Z,103.07
2022-12-17T17:03:54.278Z,104.43
2022-12-17T17:06:21.230Z,106.32
2022-12-17T17:08:47.984Z,107.63
2022-12-17T17:11:16.717Z,118.68
2022-12-17T17:13:43.600Z,109.30
2022-12-17T17:16:10.631Z,92.82
2022-12-17T17:18:37.824Z,101.40
2022-12-17T17:21:35.367Z,106.80
2022-12-17T17:24:04.008Z,81.55
2022-12-17T17:26:32.044Z,76.90
2022-12-17T17:28:59.124Z,79.28
2022-12-17T17:31:46.343Z,83.53
2022-12-17T17:34:13.913Z,74.93
2022-12-17T17:36:40.757Z,70.10
2022-12-17T17:39:08.063Z,70.88
2022-12-17T17:41:35.249Z,58.20
2022-12-17T17:44:05.785Z,50.50
2022-12-17T17:46:32.872Z,56.28
2022-12-17T17:49:00.983Z,60.28
2022-12-17T17:52:07.245Z,57.60
2022-12-17T17:54:19.056Z,59.38
2022-12-17T17:56:45.839Z,52.85
2022-12-17T17:59:14.151Z,63.75
2022-12-17T18:01:45.389Z,59.75
2022-12-17T18:04:13.430Z,73.30
2022-12-17T18:06:57.469Z,71.82
2022-12-17T18:09:27.818Z,81.88
2022-12-17T18:11:54.628Z,81.55
2022-12-17T18:14:21.395Z,81.47
2022-12-17T18:16:48.346Z,71.82
2022-12-17T18:19:19.538Z,80.13
2022-12-17T18:21:46.639Z,86.85
2022-12-17T18:24:15.203Z,77.93
2022-12-17T18:26:42.760Z,86.28
2022-12-17T18:29:17.474Z,69.00
2022-12-17T18:31:51.351Z,76.32
2022-12-17T18:34:20.060Z,74.20
2022-12-17T18:36:47.003Z,83.72
2022-12-17T18:39:15.528Z,68.18
2022-12-17T18:42:05.470Z,75.63
2022-12-17T18:44:32.721Z,81.00
2022-12-17T18:46:59.696Z,82.85
2022-12-17T18:49:26.684Z,82.47
2022-12-17T18:51:54.141Z,83.10
2022-12-17T18:54:32.961Z,71.43
2022-12-17T18:57:01.352Z,93.57
2022-12-17T18:59:29.570Z,77.30
2022-12-17T19:01:56.700Z,85.82
2022-12-17T19:04:23.789Z,92.38
2022-12-17T19:06:53.330Z,84.05
2022-12-17T19:09:24.697Z,74.90
2022-12-17T19:11:51.774Z,78.68
2022-12-17T19:14:21.970Z,82.70
2022-12-17T19:16:49.303Z,86.82
2022-12-17T19:19:16.106Z,74.38
2022-12-17T19:21:42.945Z,74.78
2022-12-17T19:24:12.593Z,84.93
2022-12-17T19:26:39.496Z,69.32
2022-12-17T19:29:08.429Z,85.15
2022-12-17T19:31:35.430Z,64.75
2022-12-17T19:34:04.884Z,69.45
2022-12-17T19:36:32.975Z,69.82
2022-12-17T19:39:02.581Z,60.75
2022-12-17T19:41:32.504Z,61.85
2022-12-17T19:44:11.618Z,67.35
2022-12-17T19:46:38.460Z,54.20
2022-12-17T19:49:08.396Z,64.93
2022-12-17T19:51:38.820Z,61.45
2022-12-17T19:54:08.967Z,60.95
2022-12-17T19:56:36.604Z,60.33
2022-12-17T19:59:07.277Z,75.57
2022-12-17T20:01:36.795Z,58.72
2022-12-17T20:04:04.735Z,56.45
2022-12-17T20:06:32.591Z,46.13
2022-12-17T20:08:59.599Z,38.30
2022-12-17T20:11:35.878Z,44.13
2022-12-17T20:14:14.593Z,49.63
2022-12-17T20:16:46.051Z,49.92
2022-12-17T20:19:18.515Z,55.33
2022-12-17T20:21:46.268Z,58.10
2022-12-17T20:24:13.651Z,48.30
2022-12-17T20:26:40.776Z,52.95
2022-12-17T20:29:08.092Z,45.42
2022-12-17T20:31:35.706Z,47.08
2022-12-17T20:34:06.759Z,49.33
2022-12-17T20:36:34.055Z,47.78
2022-12-17T20:39:01.843Z,47.35
2022-12-17T20:41:29.551Z,42.15
2022-12-17T20:43:56.432Z,35.45
2022-12-17T20:46:24.145Z,32.28
2022-12-17T20:48:51.484Z,28.05
2022-12-17T20:51:24.921Z,31.90
2022-12-17T20:53:52.816Z,26.10
2022-12-17T20:56:23.366Z,25.17
2022-12-17T20:58:58.320Z,25.02
2022-12-17T21:01:26.518Z,26.35
2022-12-17T21:03:54.513Z,27.05
2022-12-17T21:06:46.672Z,23.88
2022-12-17T21:09:13.937Z,30.90
2022-12-17T21:11:41.692Z,29.98
2022-12-17T21:14:10.622Z,23.23
2022-12-17T21:16:37.853Z,26.02
2022-12-17T21:19:04.696Z,21.70
2022-12-17T21:21:32.749Z,30.33
2022-12-17T21:23:59.707Z,24.92
2022-12-17T21:26:35.073Z,25.25
2022-12-17T21:29:03.310Z,24.15
2022-12-17T21:31:34.458Z,26.92
2022-12-17T21:34:03.022Z,23.75
2022-12-17T21:36:30.862Z,27.55
2022-12-17T21:38:58.295Z,27.88
2022-12-17T21:41:33.447Z,23.30
2022-12-17T21:44:01.888Z,20.50
2022-12-17T21:46:29.639Z,16.90
2022-12-17T21:48:57.622Z,25.23
2022-12-17T21:51:24.754Z,24.80
2022-12-17T21:54:00.135Z,25.13
2022-12-17T21:56:27.385Z,22.08
2022-12-17T21:58:59.222Z,23.63
2022-12-17T22:01:28.335Z,18.25
2022-12-17T22:03:56.917Z,27.33
2022-12-17T22:06:25.960Z,26.30
2022-12-17T22:09:00.286Z,26.13
2022-12-17T22:11:30.210Z,30.40
2022-12-17T22:14:08.112Z,24.55
2022-12-17T22:16:43.603Z,32.28
2022-12-17T22:19:11.754Z,28.60
2022-12-17T22:21:40.531Z,28.85
2022-12-17T22:24:08.027Z,25.85
2022-12-17T22:26:35.069Z,46.08
2022-12-17T22:29:03.081Z,32.88
2022-12-17T22:31:48.892Z,30.67
2022-12-17T22:35:29.015Z,25.42
2022-12-17T22:39:43.484Z,31.60
2022-12-17T22:42:33.015Z,38.95
2022-12-17T22:44:46.300Z,28.33
2022-12-17T22:45:42.437Z,21.77
2022-12-17T22:48:09.830Z,23.95
2022-12-17T22:50:46.309Z,17.42
2022-12-17T22:53:24.166Z,21.15
2022-12-17T22:55:52.306Z,17.70
2022-12-17T22:58:20.011Z,19.48
2022-12-17T23:00:46.820Z,21.50
2022-12-17T23:03:13.728Z,25.45
2022-12-17T23:05:40.600Z,14.93
2022-12-17T23:08:07.376Z,19.35
2022-12-17T23:10:34.132Z,16.30
2022-12-17T23:13:03.209Z,18.33
2022-12-17T23:15:33.210Z,19.63
2022-12-17T23:18:01.001Z,24.20
2022-12-17T23:20:28.826Z,16.63
2022-12-17T23:22:55.940Z,17.00
2022-12-17T23:25:22.685Z,15.00
2022-12-17T23:27:49.712Z,14.65
2022-12-17T23:30:16.698Z,13.95
2022-12-17T23:32:43.909Z,20.67
2022-12-17T23:35:10.848Z,15.88
2022-12-17T23:37:39.944Z,22.55
2022-12-17T23:40:09.288Z,15.60
2022-12-17T23:42:36.047Z,20.60
2022-12-17T23:45:02.950Z,20.98
2022-12-17T23:47:29.705Z,15.93
2022-12-17T23:49:56.446Z,21.05
2022-12-17T23:52:24.256Z,17.45
2022-12-17T23:54:51.026Z,20.83
2022-12-17T23:57:17.771Z,24.42
2022-12-17T23:59:44.514Z,15.40
